Time;durP1;ratioP1;P1;durP2;ratioP2;P2;SDS_P1;SDS_P2;PMS_P1;PMS_P2;Temp;Humidity;BMP_temperature;BMP_pressure;BME280_temperature;BME280_humidity;BME280_pressure;Samples;Min_cycle;Max_cycle;Signal;HPM_P1;HPM_P2
2022/03/23 00:00:27;;;;;;;80.72;52.60;;;;;;;;;;6207088;23;20016;-92
2022/03/23 00:02:57;;;;;;;71.10;50.70;;;;;;;;;;6230545;23;20425;-84
2022/03/23 00:05:29;;;;;;;78.72;52.35;;;;;;;;;;6234937;23;20035;-89
2022/03/23 00:07:56;;;;;;;79.10;53.53;;;;;;;;;;6232273;23;20016;-90
2022/03/23 00:10:23;;;;;;;79.53;54.60;;;;;;;;;;6206436;23;20074;-89
2022/03/23 00:12:49;;;;;;;81.60;54.78;;;;;;;;;;6237793;23;20020;-89
2022/03/23 00:15:15;;;;;;;79.88;54.47;;;;;;;;;;6242360;23;20028;-89
2022/03/23 00:17:42;;;;;;;85.55;57.28;;;;;;;;;;6240501;23;20016;-90
2022/03/23 00:20:09;;;;;;;84.72;57.33;;;;;;;;;;6235902;23;20028;-90
2022/03/23 00:22:36;;;;;;;85.53;56.22;;;;;;;;;;6238971;23;20452;-90
2022/03/23 00:25:02;;;;;;;83.32;57.20;;;;;;;;;;6205727;23;20487;-90
2022/03/23 00:27:31;;;;;;;87.75;57.38;;;;;;;;;;6235075;23;20660;-92
2022/03/23 00:29:57;;;;;;;86.15;57.63;;;;;;;;;;6232908;23;20023;-91
2022/03/23 00:32:23;;;;;;;84.28;58.22;;;;;;;;;;6235283;23;20031;-89
2022/03/23 00:34:50;;;;;;;79.70;56.92;;;;;;;;;;6232580;23;20016;-89
2022/03/23 00:37:17;;;;;;;87.40;57.40;;;;;;;;;;6235346;23;20107;-89
2022/03/23 00:39:43;;;;;;;87.22;57.60;;;;;;;;;;6175254;23;20019;-85
2022/03/23 00:42:15;;;;;;;87.78;57.25;;;;;;;;;;6234689;23;20020;-90
2022/03/23 00:44:42;;;;;;;84.88;58.47;;;;;;;;;;6234750;23;20016;-91
2022/03/23 00:47:09;;;;;;;85.72;58.28;;;;;;;;;;6234622;23;20016;-90
2022/03/23 00:49:35;;;;;;;86.78;58.58;;;;;;;;;;6234400;23;20016;-92
2022/03/23 00:52:02;;;;;;;87.97;57.45;;;;;;;;;;6232417;23;20062;-88
2022/03/23 00:54:28;;;;;;;86.70;58.15;;;;;;;;;;6209833;23;20452;-91
2022/03/23 00:56:54;;;;;;;86.97;59.13;;;;;;;;;;6207415;23;20091;-88
2022/03/23 00:59:22;;;;;;;87.35;58.58;;;;;;;;;;6234440;23;20754;-88
2022/03/23 01:01:48;;;;;;;91.50;59.13;;;;;;;;;;6235205;23;21026;-88
2022/03/23 01:04:16;;;;;;;88.95;58.00;;;;;;;;;;6210778;23;20020;-90
2022/03/23 01:06:44;;;;;;;83.65;57.42;;;;;;;;;;6248891;22;20034;-92
2022/03/23 01:09:10;;;;;;;92.88;59.03;;;;;;;;;;6247850;22;20023;-91
2022/03/23 01:11:37;;;;;;;97.15;60.45;;;;;;;;;;6219286;23;20048;-91
2022/03/23 01:14:03;;;;;;;86.25;58.65;;;;;;;;;;6242303;23;20023;-90
2022/03/23 01:16:29;;;;;;;86.85;58.75;;;;;;;;;;6240227;23;20020;-91
2022/03/23 01:18:55;;;;;;;87.53;59.22;;;;;;;;;;6235450;22;20063;-87
2022/03/23 01:21:22;;;;;;;93.85;58.13;;;;;;;;;;6237529;23;21018;-86
2022/03/23 01:23:48;;;;;;;93.32;58.38;;;;;;;;;;6209917;23;20039;-91
2022/03/23 01:26:14;;;;;;;97.68;61.25;;;;;;;;;;6238158;23;20020;-89
2022/03/23 01:28:40;;;;;;;108.20;63.30;;;;;;;;;;6249609;23;20026;-92
2022/03/23 01:31:08;;;;;;;89.32;60.15;;;;;;;;;;6237520;23;20027;-87
2022/03/23 01:33:34;;;;;;;86.00;59.13;;;;;;;;;;6234038;23;20035;-90
2022/03/23 01:36:06;;;;;;;93.57;57.90;;;;;;;;;;6265213;23;20023;-87
2022/03/23 01:38:32;;;;;;;86.30;57.13;;;;;;;;;;6194207;23;20027;-87
2022/03/23 01:40:58;;;;;;;85.68;57.10;;;;;;;;;;6242058;23;20016;-89
2022/03/23 01:43:25;;;;;;;90.22;59.33;;;;;;;;;;6215412;23;20016;-86
2022/03/23 01:45:51;;;;;;;84.53;57.85;;;;;;;;;;6184877;23;20095;-92
2022/03/23 01:48:17;;;;;;;88.47;59.10;;;;;;;;;;6186443;23;20456;-87
2022/03/23 01:50:43;;;;;;;91.10;59.67;;;;;;;;;;6208488;23;20047;-89
2022/03/23 01:53:09;;;;;;;90.40;58.45;;;;;;;;;;6234210;23;20095;-88
2022/03/23 01:55:35;;;;;;;80.88;56.40;;;;;;;;;;6235930;23;20099;-89
2022/03/23 01:58:01;;;;;;;85.80;56.15;;;;;;;;;;6234433;23;20314;-91
2022/03/23 02:00:28;;;;;;;85.93;57.47;;;;;;;;;;6236181;23;20016;-89
2022/03/23 02:02:54;;;;;;;83.07;55.90;;;;;;;;;;6234689;23;20024;-90
2022/03/23 02:05:20;;;;;;;86.72;56.47;;;;;;;;;;6183819;23;20022;-90
2022/03/23 02:07:46;;;;;;;87.22;57.33;;;;;;;;;;6233244;23;20016;-91
2022/03/23 02:10:12;;;;;;;78.40;53.45;;;;;;;;;;6234784;23;20106;-85
2022/03/23 02:12:39;;;;;;;83.20;54.63;;;;;;;;;;6236423;23;20039;-89
2022/03/23 02:15:12;;;;;;;79.68;53.45;;;;;;;;;;6235584;23;20091;-89
2022/03/23 02:17:39;;;;;;;78.10;53.00;;;;;;;;;;6235278;23;20024;-85
2022/03/23 02:20:06;;;;;;;87.75;55.33;;;;;;;;;;6233326;22;20016;-89
2022/03/23 02:22:32;;;;;;;80.57;54.47;;;;;;;;;;6235629;23;20055;-88
2022/03/23 02:24:58;;;;;;;82.45;52.80;;;;;;;;;;6234944;23;20030;-90
2022/03/23 02:27:25;;;;;;;85.40;57.00;;;;;;;;;;6233039;23;20024;-88
2022/03/23 02:29:53;;;;;;;88.03;58.50;;;;;;;;;;6208951;23;20024;-89
2022/03/23 02:32:22;;;;;;;90.28;58.75;;;;;;;;;;6182347;23;20039;-91
2022/03/23 02:34:48;;;;;;;95.95;60.83;;;;;;;;;;6184046;23;20447;-91
2022/03/23 02:37:16;;;;;;;89.22;56.33;;;;;;;;;;6234289;23;20020;-87
2022/03/23 02:39:42;;;;;;;92.95;58.58;;;;;;;;;;6257410;22;20016;-86
2022/03/23 02:42:08;;;;;;;95.38;60.00;;;;;;;;;;6234676;23;20939;-91
2022/03/23 02:44:34;;;;;;;91.80;58.75;;;;;;;;;;6250610;23;20474;-82
2022/03/23 02:47:01;;;;;;;95.97;60.45;;;;;;;;;;6234459;23;20043;-90
2022/03/23 02:49:27;;;;;;;96.07;58.25;;;;;;;;;;6261400;22;20020;-90
2022/03/23 02:51:53;;;;;;;100.35;61.67;;;;;;;;;;6257107;23;20105;-90
2022/03/23 03:03:09;;;;;;;85.70;56.38;;;;;;;;;;6253649;22;20086;-87
2022/03/23 03:05:35;;;;;;;87.82;57.45;;;;;;;;;;6227776;23;20035;-91
2022/03/23 03:10:46;;;;;;;85.95;56.67;;;;;;;;;;6211415;23;20020;-89
2022/03/23 03:13:12;;;;;;;89.95;56.70;;;;;;;;;;6236746;23;20020;-91
2022/03/23 03:15:38;;;;;;;88.32;53.15;;;;;;;;;;6239027;23;20016;-90
2022/03/23 03:18:05;;;;;;;81.70;54.13;;;;;;;;;;6187404;23;20448;-91
2022/03/23 03:20:31;;;;;;;92.65;57.60;;;;;;;;;;6238051;23;20102;-90
2022/03/23 03:22:58;;;;;;;87.93;57.72;;;;;;;;;;6238221;23;20073;-91
2022/03/23 03:25:24;;;;;;;91.30;58.50;;;;;;;;;;6240132;23;20087;-90
2022/03/23 03:27:50;;;;;;;91.65;58.45;;;;;;;;;;6212485;23;20048;-90
2022/03/23 03:30:17;;;;;;;87.22;56.47;;;;;;;;;;6208535;23;20020;-88
2022/03/23 03:32:44;;;;;;;90.70;57.90;;;;;;;;;;6236176;23;20042;-87
2022/03/23 03:35:11;;;;;;;87.43;57.95;;;;;;;;;;6206352;23;20086;-85
2022/03/23 03:37:37;;;;;;;86.05;55.50;;;;;;;;;;6234885;23;20023;-90
2022/03/23 03:40:05;;;;;;;86.35;55.40;;;;;;;;;;6235204;23;20020;-88
2022/03/23 03:42:31;;;;;;;83.63;53.72;;;;;;;;;;6234442;23;20023;-89
2022/03/23 03:44:57;;;;;;;79.40;53.53;;;;;;;;;;6235440;23;20042;-90
2022/03/23 03:47:24;;;;;;;83.45;54.53;;;;;;;;;;6184562;23;20024;-86
2022/03/23 03:49:50;;;;;;;86.63;54.95;;;;;;;;;;6210050;23;20023;-90
2022/03/23 03:52:16;;;;;;;87.78;55.15;;;;;;;;;;6235346;23;20196;-90
2022/03/23 03:54:43;;;;;;;93.38;56.80;;;;;;;;;;6233531;23;20095;-90
2022/03/23 03:57:10;;;;;;;90.30;58.03;;;;;;;;;;6233905;23;20022;-92
2022/03/23 03:59:36;;;;;;;85.45;57.42;;;;;;;;;;6233697;23;20024;-88
2022/03/23 04:02:02;;;;;;;85.07;56.40;;;;;;;;;;6156961;23;20012;-89
2022/03/23 04:04:29;;;;;;;96.50;59.03;;;;;;;;;;6234245;23;20049;-89
2022/03/23 04:06:55;;;;;;;86.35;57.42;;;;;;;;;;6233735;23;20060;-90
2022/03/23 04:09:22;;;;;;;95.20;60.30;;;;;;;;;;6232435;23;20087;-90
2022/03/23 04:11:48;;;;;;;98.50;61.90;;;;;;;;;;6208872;23;20050;-89
2022/03/23 04:14:15;;;;;;;94.40;59.97;;;;;;;;;;6233725;23;20051;-88
2022/03/23 04:16:41;;;;;;;99.45;61.95;;;;;;;;;;6238731;23;20020;-86
2022/03/23 04:19:08;;;;;;;96.78;59.95;;;;;;;;;;6208242;23;20356;-90
2022/03/23 04:21:34;;;;;;;98.75;61.58;;;;;;;;;;6236834;23;20052;-87
2022/03/23 04:24:00;;;;;;;85.47;57.38;;;;;;;;;;6235853;23;20028;-90
2022/03/23 04:26:26;;;;;;;85.95;55.83;;;;;;;;;;6235380;23;20051;-89
2022/03/23 04:28:52;;;;;;;89.93;57.65;;;;;;;;;;6207340;23;20739;-90
2022/03/23 04:31:18;;;;;;;92.05;60.70;;;;;;;;;;6206780;23;20012;-84
2022/03/23 04:33:45;;;;;;;86.53;56.70;;;;;;;;;;6234267;23;20448;-87
2022/03/23 04:36:11;;;;;;;96.05;61.35;;;;;;;;;;6234774;23;20012;-85
2022/03/23 04:38:37;;;;;;;91.70;57.80;;;;;;;;;;6208641;23;20019;-90
2022/03/23 04:41:04;;;;;;;92.50;59.80;;;;;;;;;;6234626;23;20016;-92
2022/03/23 04:43:31;;;;;;;90.35;58.35;;;;;;;;;;6235636;23;20024;-90
2022/03/23 04:45:57;;;;;;;94.32;60.65;;;;;;;;;;6209261;23;20028;-88
2022/03/23 04:48:23;;;;;;;93.03;58.15;;;;;;;;;;6207480;23;20016;-90
2022/03/23 04:50:49;;;;;;;95.63;60.45;;;;;;;;;;6235526;23;20518;-89
2022/03/23 04:53:16;;;;;;;96.97;63.55;;;;;;;;;;6236465;23;20016;-89
2022/03/23 04:55:42;;;;;;;95.25;62.08;;;;;;;;;;6235627;23;20015;-85
2022/03/23 04:58:08;;;;;;;96.97;60.55;;;;;;;;;;6234394;23;20022;-89
2022/03/23 05:00:37;;;;;;;93.30;60.15;;;;;;;;;;6235121;23;20035;-86
2022/03/23 05:03:04;;;;;;;87.32;59.58;;;;;;;;;;6234124;23;21017;-86
2022/03/23 05:05:30;;;;;;;99.32;62.70;;;;;;;;;;6205920;23;20048;-86
2022/03/23 05:07:56;;;;;;;90.07;59.13;;;;;;;;;;6232886;23;20028;-86
2022/03/23 05:10:22;;;;;;;94.28;59.33;;;;;;;;;;6232428;23;20028;-86
2022/03/23 05:12:49;;;;;;;101.47;62.10;;;;;;;;;;6234352;23;20016;-81
2022/03/23 05:15:16;;;;;;;105.15;63.03;;;;;;;;;;6233804;23;20039;-87
2022/03/23 05:17:44;;;;;;;89.20;58.47;;;;;;;;;;6234329;23;20023;-88
2022/03/23 05:20:11;;;;;;;102.60;61.90;;;;;;;;;;6178917;23;20016;-86
2022/03/23 05:22:37;;;;;;;103.00;66.28;;;;;;;;;;6233324;23;20027;-87
2022/03/23 05:25:04;;;;;;;97.78;64.70;;;;;;;;;;6233452;23;20509;-87
2022/03/23 05:27:40;;;;;;;99.15;62.75;;;;;;;;;;6235194;23;20395;-86
2022/03/23 05:30:08;;;;;;;86.97;56.63;;;;;;;;;;6241359;23;20020;-87
2022/03/23 05:32:35;;;;;;;90.57;58.45;;;;;;;;;;6249284;23;20039;-84
2022/03/23 05:35:01;;;;;;;90.60;58.53;;;;;;;;;;6227030;23;20024;-85
2022/03/23 05:37:28;;;;;;;88.50;58.05;;;;;;;;;;6251965;23;20022;-89
2022/03/23 05:39:54;;;;;;;88.90;56.55;;;;;;;;;;6262550;23;20020;-83
2022/03/23 05:42:20;;;;;;;89.00;56.75;;;;;;;;;;6249265;23;20592;-87
2022/03/23 05:44:46;;;;;;;90.18;57.10;;;;;;;;;;6234658;23;20020;-88
2022/03/23 05:47:12;;;;;;;97.43;60.17;;;;;;;;;;6237528;23;20016;-88
2022/03/23 05:49:38;;;;;;;89.60;59.03;;;;;;;;;;6233837;23;20356;-84
2022/03/23 05:52:05;;;;;;;85.40;56.72;;;;;;;;;;6233635;23;20016;-86
2022/03/23 05:54:31;;;;;;;87.70;55.83;;;;;;;;;;6182222;23;20091;-89
2022/03/23 05:56:57;;;;;;;87.50;57.05;;;;;;;;;;6235591;23;20050;-89
2022/03/23 05:59:23;;;;;;;89.70;58.33;;;;;;;;;;6234228;23;20063;-88
2022/03/23 06:01:49;;;;;;;88.47;56.83;;;;;;;;;;6232670;23;20050;-87
2022/03/23 06:04:16;;;;;;;85.70;54.83;;;;;;;;;;6234872;23;20480;-90
2022/03/23 06:06:42;;;;;;;84.65;54.65;;;;;;;;;;6208387;23;20055;-86
2022/03/23 06:09:08;;;;;;;85.18;56.20;;;;;;;;;;6236330;23;20016;-89
2022/03/23 06:11:34;;;;;;;80.25;54.00;;;;;;;;;;6233644;23;20047;-85
2022/03/23 06:14:00;;;;;;;84.45;55.10;;;;;;;;;;6235697;23;20070;-88
2022/03/23 06:16:26;;;;;;;83.40;54.72;;;;;;;;;;6205283;23;20097;-87
2022/03/23 06:18:53;;;;;;;87.35;56.63;;;;;;;;;;6238130;23;20056;-87
2022/03/23 06:21:19;;;;;;;82.00;53.00;;;;;;;;;;6234824;23;20024;-87
2022/03/23 06:23:45;;;;;;;87.50;56.25;;;;;;;;;;6235022;23;20464;-84
2022/03/23 06:26:11;;;;;;;98.05;58.65;;;;;;;;;;6234103;23;20062;-86
2022/03/23 06:28:37;;;;;;;102.65;63.00;;;;;;;;;;6158340;23;20024;-88
2022/03/23 06:31:03;;;;;;;90.78;59.35;;;;;;;;;;6235887;23;20042;-86
2022/03/23 06:33:29;;;;;;;83.68;56.42;;;;;;;;;;6234826;23;20489;-84
2022/03/23 06:35:55;;;;;;;97.45;59.47;;;;;;;;;;6236148;23;20012;-87
2022/03/23 06:38:21;;;;;;;83.82;55.40;;;;;;;;;;6234293;23;20487;-87
2022/03/23 06:40:47;;;;;;;90.93;57.10;;;;;;;;;;6234617;23;20094;-88
2022/03/23 06:43:14;;;;;;;85.05;56.17;;;;;;;;;;6232940;23;20051;-87
2022/03/23 06:45:42;;;;;;;83.40;57.33;;;;;;;;;;6235110;23;20027;-86
2022/03/23 06:48:08;;;;;;;88.28;57.55;;;;;;;;;;6236060;23;20035;-88
2022/03/23 06:50:35;;;;;;;86.25;56.13;;;;;;;;;;6236653;23;20020;-88
2022/03/23 06:53:01;;;;;;;88.85;57.65;;;;;;;;;;6208430;23;20047;-87
2022/03/23 06:55:27;;;;;;;86.93;55.47;;;;;;;;;;6234631;23;20027;-87
2022/03/23 06:57:53;;;;;;;86.05;56.08;;;;;;;;;;6158341;23;20022;-89
2022/03/23 07:00:19;;;;;;;88.82;54.80;;;;;;;;;;6234626;23;20024;-83
2022/03/23 07:02:47;;;;;;;72.57;51.40;;;;;;;;;;6160625;23;20051;-87
2022/03/23 07:05:13;;;;;;;71.60;49.08;;;;;;;;;;6238547;23;20061;-88
2022/03/23 07:09:31;;;;;;;65.82;45.70;;;;;;;;;;6209395;23;20236;-85
2022/03/23 07:10:26;;;;;;;66.22;43.53;;;;;;;;;;6237083;23;20017;-86
2022/03/23 07:12:52;;;;;;;60.28;41.50;;;;;;;;;;6234074;23;20220;-88
2022/03/23 07:15:18;;;;;;;57.25;38.92;;;;;;;;;;6236099;23;20016;-89
2022/03/23 07:17:44;;;;;;;62.03;40.03;;;;;;;;;;6208700;23;20475;-86
2022/03/23 07:20:10;;;;;;;61.28;42.22;;;;;;;;;;6208393;23;20086;-85
2022/03/23 07:22:37;;;;;;;49.22;36.30;;;;;;;;;;6207740;23;20071;-87
2022/03/23 07:25:05;;;;;;;49.20;35.33;;;;;;;;;;6234685;23;20107;-88
2022/03/23 07:27:31;;;;;;;47.92;33.20;;;;;;;;;;6208719;23;20176;-87
2022/03/23 07:29:57;;;;;;;43.20;32.63;;;;;;;;;;6234561;23;20023;-88
2022/03/23 07:32:23;;;;;;;45.67;33.08;;;;;;;;;;6212121;23;20024;-86
2022/03/23 07:34:49;;;;;;;46.80;31.95;;;;;;;;;;6244447;23;20137;-88
2022/03/23 07:37:15;;;;;;;50.20;33.08;;;;;;;;;;6247210;23;20016;-86
2022/03/23 07:39:43;;;;;;;44.30;32.80;;;;;;;;;;6234918;23;20123;-88
2022/03/23 07:42:09;;;;;;;52.33;33.60;;;;;;;;;;6233871;23;20154;-87
2022/03/23 07:44:35;;;;;;;49.45;33.42;;;;;;;;;;6235396;23;20523;-87
2022/03/23 07:47:02;;;;;;;47.65;33.67;;;;;;;;;;6234865;23;20344;-84
2022/03/23 07:49:28;;;;;;;45.53;32.50;;;;;;;;;;6234983;23;20020;-87
2022/03/23 07:51:54;;;;;;;45.55;33.10;;;;;;;;;;6233353;23;20020;-87
2022/03/23 07:54:20;;;;;;;54.65;32.70;;;;;;;;;;6234859;23;20091;-88
2022/03/23 07:56:46;;;;;;;50.58;31.95;;;;;;;;;;6234937;23;20016;-86
2022/03/23 07:59:13;;;;;;;45.65;32.38;;;;;;;;;;6207369;23;20056;-88
2022/03/23 08:01:39;;;;;;;40.38;29.80;;;;;;;;;;6206389;23;20797;-86
2022/03/23 08:04:05;;;;;;;50.97;32.78;;;;;;;;;;6234553;23;20043;-86
2022/03/23 08:06:35;;;;;;;43.38;30.17;;;;;;;;;;6237837;23;20052;-85
2022/03/23 08:09:02;;;;;;;42.88;29.10;;;;;;;;;;6236059;23;20039;-88
2022/03/23 08:11:28;;;;;;;36.10;27.95;;;;;;;;;;6237694;23;20137;-88
2022/03/23 08:13:54;;;;;;;36.58;27.08;;;;;;;;;;6237608;23;20091;-89
2022/03/23 08:16:20;;;;;;;47.67;30.02;;;;;;;;;;6211178;23;20646;-87
2022/03/23 08:18:46;;;;;;;39.53;29.08;;;;;;;;;;6235617;23;20349;-88
2022/03/23 08:21:12;;;;;;;40.38;29.23;;;;;;;;;;6236145;23;20082;-88
2022/03/23 08:23:40;;;;;;;41.78;28.50;;;;;;;;;;6242240;23;20016;-87
2022/03/23 08:26:09;;;;;;;40.38;29.08;;;;;;;;;;6250965;23;20020;-82
2022/03/23 08:28:38;;;;;;;38.30;28.70;;;;;;;;;;6260158;22;20023;-89
2022/03/23 08:31:16;;;;;;;42.05;29.15;;;;;;;;;;6240854;23;20016;-88
2022/03/23 08:34:07;;;;;;;42.30;28.85;;;;;;;;;;6248667;23;20024;-88
2022/03/23 08:36:34;;;;;;;45.17;30.58;;;;;;;;;;6244967;23;20020;-86
2022/03/23 08:39:00;;;;;;;40.17;30.00;;;;;;;;;;6245733;23;20579;-86
2022/03/23 08:41:27;;;;;;;45.70;30.65;;;;;;;;;;6246246;23;20442;-87
2022/03/23 08:43:59;;;;;;;43.53;30.65;;;;;;;;;;6248793;23;20046;-84
2022/03/23 08:46:25;;;;;;;42.22;30.48;;;;;;;;;;6197684;23;20076;-86
2022/03/23 08:48:52;;;;;;;41.08;31.58;;;;;;;;;;6219520;23;20020;-81
2022/03/23 08:51:19;;;;;;;43.80;32.45;;;;;;;;;;6246236;23;20012;-87
2022/03/23 08:53:45;;;;;;;43.85;31.33;;;;;;;;;;6243769;23;20142;-87
2022/03/23 08:56:12;;;;;;;43.97;32.15;;;;;;;;;;6236605;23;20423;-88
2022/03/23 08:58:38;;;;;;;47.50;32.30;;;;;;;;;;6234902;23;20019;-84
2022/03/23 09:01:05;;;;;;;41.92;33.33;;;;;;;;;;6236943;23;20062;-88
2022/03/23 09:03:32;;;;;;;44.45;31.13;;;;;;;;;;6235120;23;20027;-86
2022/03/23 09:05:59;;;;;;;44.03;32.65;;;;;;;;;;6236287;23;20043;-88
2022/03/23 09:08:25;;;;;;;43.03;32.17;;;;;;;;;;6235861;23;20283;-88
2022/03/23 09:10:52;;;;;;;48.05;31.85;;;;;;;;;;6237405;23;20039;-87
2022/03/23 09:13:18;;;;;;;45.35;31.48;;;;;;;;;;6234707;23;20016;-87
2022/03/23 09:15:44;;;;;;;41.92;31.67;;;;;;;;;;6236244;23;20035;-87
2022/03/23 09:18:10;;;;;;;41.53;31.48;;;;;;;;;;6209725;23;20023;-86
2022/03/23 09:20:37;;;;;;;40.42;31.55;;;;;;;;;;6234223;22;20020;-86
2022/03/23 09:23:03;;;;;;;42.80;31.02;;;;;;;;;;6236031;23;20063;-85
2022/03/23 09:25:30;;;;;;;46.25;31.15;;;;;;;;;;6234963;23;20016;-87
2022/03/23 09:27:56;;;;;;;44.10;31.20;;;;;;;;;;6208819;23;20016;-82
2022/03/23 09:30:22;;;;;;;45.38;30.02;;;;;;;;;;6207401;23;20054;-87
2022/03/23 09:32:48;;;;;;;35.95;29.67;;;;;;;;;;6206590;23;20065;-88
2022/03/23 09:35:16;;;;;;;38.28;28.48;;;;;;;;;;6208094;23;20085;-86
2022/03/23 09:37:52;;;;;;;40.00;28.33;;;;;;;;;;6234250;23;20027;-85
2022/03/23 09:40:24;;;;;;;37.90;28.90;;;;;;;;;;6208544;23;20022;-85
2022/03/23 09:42:50;;;;;;;41.35;29.35;;;;;;;;;;6248521;23;20959;-82
2022/03/23 09:47:59;;;;;;;39.65;28.88;;;;;;;;;;6210150;23;20024;-88
2022/03/23 09:50:27;;;;;;;38.70;29.17;;;;;;;;;;6236559;23;20017;-86
2022/03/23 09:52:54;;;;;;;43.58;29.45;;;;;;;;;;6239561;23;20012;-86
2022/03/23 09:55:38;;;;;;;35.35;28.88;;;;;;;;;;6168648;23;20103;-89
2022/03/23 09:58:06;;;;;;;34.50;27.75;;;;;;;;;;6251251;23;20024;-84
2022/03/23 10:00:42;;;;;;;37.00;28.33;;;;;;;;;;6249637;23;20498;-85
2022/03/23 10:03:08;;;;;;;36.70;28.02;;;;;;;;;;6218956;23;20032;-89
2022/03/23 10:05:52;;;;;;;34.95;27.77;;;;;;;;;;6208832;23;20031;-86
2022/03/23 10:08:51;;;;;;;38.45;27.75;;;;;;;;;;6236087;23;20019;-89
2022/03/23 10:11:29;;;;;;;36.10;27.10;;;;;;;;;;6155192;23;20093;-87
2022/03/23 10:14:14;;;;;;;35.95;27.33;;;;;;;;;;6208433;23;20027;-86
2022/03/23 10:16:59;;;;;;;38.75;28.80;;;;;;;;;;6208791;23;20448;-86
2022/03/23 10:19:50;;;;;;;39.90;28.67;;;;;;;;;;6235037;22;20028;-88
2022/03/23 10:22:17;;;;;;;30.70;24.55;;;;;;;;;;6234305;23;20535;-82
2022/03/23 10:24:43;;;;;;;35.00;25.15;;;;;;;;;;6210005;23;20016;-88
2022/03/23 10:27:13;;;;;;;32.63;25.23;;;;;;;;;;6236296;23;20024;-89
2022/03/23 10:29:41;;;;;;;32.83;24.80;;;;;;;;;;6236861;23;20023;-88
2022/03/23 10:32:11;;;;;;;31.10;23.95;;;;;;;;;;6182153;23;20016;-87
2022/03/23 10:34:47;;;;;;;39.92;24.80;;;;;;;;;;6181623;23;20020;-89
2022/03/23 10:37:14;;;;;;;37.70;23.90;;;;;;;;;;6235585;23;20019;-84
2022/03/23 10:39:40;;;;;;;31.23;23.70;;;;;;;;;;6234076;23;20063;-87
2022/03/23 10:42:09;;;;;;;31.15;23.95;;;;;;;;;;6235193;23;20023;-84
2022/03/23 10:44:35;;;;;;;35.10;24.77;;;;;;;;;;6235386;23;20020;-89
2022/03/23 10:47:01;;;;;;;35.88;24.83;;;;;;;;;;6210108;23;20020;-87
2022/03/23 10:49:35;;;;;;;34.88;24.00;;;;;;;;;;6183957;23;20472;-89
2022/03/23 10:52:01;;;;;;;;;;;;;;;;;;6236051;23;20024;-89
2022/03/23 10:54:28;;;;;;;31.38;24.48;;;;;;;;;;6236184;23;19973;-87
2022/03/23 10:56:54;;;;;;;27.38;23.33;;;;;;;;;;6235013;23;20027;-89
2022/03/23 10:59:28;;;;;;;33.25;23.58;;;;;;;;;;6209744;23;20024;-86
2022/03/23 11:02:07;;;;;;;28.52;23.88;;;;;;;;;;6207941;23;20499;-89
2022/03/23 11:04:51;;;;;;;28.65;22.27;;;;;;;;;;6209226;23;20012;-89
2022/03/23 11:07:25;;;;;;;34.70;22.60;;;;;;;;;;6209359;23;20433;-88
2022/03/23 11:18:15;;;;;;;29.35;22.75;;;;;;;;;;6235473;23;20024;-90
2022/03/23 11:20:41;;;;;;;32.80;22.95;;;;;;;;;;6235153;22;20432;-89
2022/03/23 11:23:26;;;;;;;27.23;22.38;;;;;;;;;;6234787;23;20024;-87
2022/03/23 11:25:53;;;;;;;30.00;23.05;;;;;;;;;;6209589;23;20027;-85
2022/03/23 11:28:20;;;;;;;24.80;21.83;;;;;;;;;;6207520;23;20028;-89
2022/03/23 11:30:47;;;;;;;29.77;22.65;;;;;;;;;;6234203;23;20016;-83
2022/03/23 11:33:16;;;;;;;32.53;22.25;;;;;;;;;;6235995;23;20035;-87
2022/03/23 11:35:48;;;;;;;27.60;22.25;;;;;;;;;;6207193;23;20024;-89
2022/03/23 11:38:14;;;;;;;30.45;22.20;;;;;;;;;;6184333;23;20020;-86
2022/03/23 11:40:42;;;;;;;25.45;20.85;;;;;;;;;;6233850;23;20012;-89
2022/03/23 11:43:09;;;;;;;23.48;20.58;;;;;;;;;;6235669;23;20510;-85
2022/03/23 11:45:36;;;;;;;26.13;20.90;;;;;;;;;;6234168;23;20085;-86
2022/03/23 11:48:11;;;;;;;26.83;21.15;;;;;;;;;;6235207;23;20097;-86
2022/03/23 11:50:47;;;;;;;26.38;21.77;;;;;;;;;;6207385;23;20018;-85
2022/03/23 11:53:31;;;;;;;27.17;21.58;;;;;;;;;;6206164;23;20024;-88
2022/03/23 11:55:58;;;;;;;23.83;19.83;;;;;;;;;;6207600;23;20028;-84
2022/03/23 11:58:34;;;;;;;23.20;20.45;;;;;;;;;;6207029;23;20017;-82
2022/03/23 12:01:18;;;;;;;24.55;20.40;;;;;;;;;;6234768;23;20032;-81
2022/03/23 12:03:44;;;;;;;24.35;20.63;;;;;;;;;;6234489;23;20060;-89
2022/03/23 12:06:14;;;;;;;22.33;20.02;;;;;;;;;;6234435;23;20031;-86
2022/03/23 12:08:47;;;;;;;22.23;19.90;;;;;;;;;;6232834;23;20042;-86
2022/03/23 12:11:32;;;;;;;23.70;19.60;;;;;;;;;;6231777;23;20019;-85
2022/03/23 12:13:59;;;;;;;22.60;19.80;;;;;;;;;;6206634;23;20016;-87
2022/03/23 12:16:44;;;;;;;25.77;19.35;;;;;;;;;;6180901;23;20532;-87
2022/03/23 12:19:13;;;;;;;22.52;18.85;;;;;;;;;;6233026;22;20013;-86
2022/03/23 12:21:50;;;;;;;23.98;19.55;;;;;;;;;;6240062;23;20028;-88
2022/03/23 12:24:25;;;;;;;25.08;19.65;;;;;;;;;;6241987;23;20345;-86
2022/03/23 12:26:56;;;;;;;19.58;17.48;;;;;;;;;;6234868;23;20103;-84
2022/03/23 12:29:25;;;;;;;25.75;18.50;;;;;;;;;;6234950;23;20052;-87
2022/03/23 12:32:02;;;;;;;20.95;17.98;;;;;;;;;;6232793;23;20043;-85
2022/03/23 12:34:29;;;;;;;19.45;17.45;;;;;;;;;;6234768;23;20019;-87
2022/03/23 12:37:06;;;;;;;28.42;15.88;;;;;;;;;;6233267;23;20093;-87
2022/03/23 12:39:44;;;;;;;19.30;17.20;;;;;;;;;;6237307;23;20103;-85
2022/03/23 12:42:13;;;;;;;21.40;16.15;;;;;;;;;;6183715;23;20024;-82
2022/03/23 12:44:43;;;;;;;19.05;16.98;;;;;;;;;;6234736;23;20024;-84
2022/03/23 12:47:12;;;;;;;19.00;16.30;;;;;;;;;;6235483;23;20020;-85
2022/03/23 12:58:23;;;;;;;;;;;;;;;;;;6236208;23;20020;-82
2022/03/23 13:00:50;;;;;;;17.17;13.73;;;;;;;;;;6237500;23;20001;-84
2022/03/23 13:03:19;;;;;;;22.85;14.10;;;;;;;;;;6234959;23;20024;-85
2022/03/23 13:06:00;;;;;;;17.70;13.45;;;;;;;;;;6237767;23;20356;-84
2022/03/23 13:08:33;;;;;;;20.55;14.38;;;;;;;;;;6210273;23;20080;-85
2022/03/23 13:10:59;;;;;;;19.38;15.07;;;;;;;;;;6235458;23;20461;-85
2022/03/23 13:13:26;;;;;;;18.77;13.82;;;;;;;;;;6184952;23;20115;-82
2022/03/23 13:15:52;;;;;;;19.23;13.77;;;;;;;;;;6236034;23;20044;-85
2022/03/23 13:18:23;;;;;;;19.05;13.75;;;;;;;;;;6210890;23;20019;-84
2022/03/23 13:20:51;;;;;;;23.70;12.50;;;;;;;;;;6234437;22;20024;-85
2022/03/23 13:23:20;;;;;;;24.67;12.20;;;;;;;;;;6237271;23;20059;-85
2022/03/23 13:25:47;;;;;;;21.92;12.68;;;;;;;;;;6208623;23;20024;-84
2022/03/23 13:28:15;;;;;;;24.33;12.88;;;;;;;;;;6236690;23;20352;-85
2022/03/23 13:30:42;;;;;;;22.52;12.50;;;;;;;;;;6236747;23;20020;-83
2022/03/23 13:33:18;;;;;;;21.20;11.50;;;;;;;;;;6210691;23;20027;-87
2022/03/23 13:35:44;;;;;;;21.55;10.98;;;;;;;;;;6236914;23;20024;-86
2022/03/23 13:38:11;;;;;;;23.52;12.43;;;;;;;;;;6236266;23;20112;-87
2022/03/23 13:43:34;;;;;;;21.20;12.05;;;;;;;;;;6209056;23;20024;-87
2022/03/23 13:46:01;;;;;;;20.33;12.55;;;;;;;;;;6237147;23;20042;-86
2022/03/23 13:48:34;;;;;;;22.98;11.35;;;;;;;;;;6256505;23;20016;-84
2022/03/23 13:51:00;;;;;;;23.75;12.30;;;;;;;;;;6202356;23;20016;-83
2022/03/23 13:53:27;;;;;;;27.15;14.18;;;;;;;;;;6236752;23;20016;-85
2022/03/23 13:55:54;;;;;;;21.95;13.02;;;;;;;;;;6260920;22;20055;-85
2022/03/23 13:58:21;;;;;;;21.73;13.35;;;;;;;;;;6209742;23;20032;-82
2022/03/23 14:00:50;;;;;;;25.88;13.95;;;;;;;;;;6221719;23;20020;-88
2022/03/23 14:03:20;;;;;;;29.10;12.18;;;;;;;;;;6241578;23;20020;-87
2022/03/23 14:06:01;;;;;;;23.92;13.00;;;;;;;;;;6244269;23;20469;-87
2022/03/23 14:08:33;;;;;;;23.88;13.13;;;;;;;;;;6238154;23;20055;-88
2022/03/23 14:11:00;;;;;;;26.38;13.82;;;;;;;;;;6210521;23;20020;-83
2022/03/23 14:13:26;;;;;;;23.67;13.90;;;;;;;;;;6235622;23;20038;-85
2022/03/23 14:15:57;;;;;;;26.10;13.95;;;;;;;;;;6236584;23;20024;-84
2022/03/23 14:18:24;;;;;;;24.90;14.32;;;;;;;;;;6234476;23;20360;-84
2022/03/23 14:20:54;;;;;;;23.33;12.80;;;;;;;;;;6236343;23;20027;-84
2022/03/23 14:23:21;;;;;;;27.40;14.40;;;;;;;;;;6235921;23;20020;-86
2022/03/23 14:25:51;;;;;;;24.75;14.38;;;;;;;;;;6208506;23;20078;-85
2022/03/23 14:28:19;;;;;;;31.25;15.07;;;;;;;;;;6235272;23;20776;-85
2022/03/23 14:34:36;;;;;;;25.45;14.98;;;;;;;;;;6235898;23;20427;-86
2022/03/23 14:37:20;;;;;;;22.05;13.98;;;;;;;;;;6234959;23;20078;-88
2022/03/23 14:39:48;;;;;;;19.85;14.15;;;;;;;;;;6208460;23;20821;-87
2022/03/23 14:42:15;;;;;;;29.15;14.90;;;;;;;;;;6235879;23;20114;-85
2022/03/23 14:44:45;;;;;;;26.35;14.85;;;;;;;;;;6209540;23;20074;-83
2022/03/23 14:47:12;;;;;;;22.98;15.57;;;;;;;;;;6235323;23;20044;-87
2022/03/23 14:49:45;;;;;;;29.23;14.52;;;;;;;;;;6249499;23;20016;-83
2022/03/23 14:52:12;;;;;;;22.17;15.63;;;;;;;;;;6219147;23;20103;-86
2022/03/23 14:54:41;;;;;;;25.67;14.75;;;;;;;;;;6242171;23;20020;-87
2022/03/23 14:57:12;;;;;;;24.48;14.27;;;;;;;;;;6225055;23;20020;-85
2022/03/23 14:59:52;;;;;;;25.67;14.50;;;;;;;;;;6245501;23;20024;-82
2022/03/23 15:02:18;;;;;;;23.45;14.68;;;;;;;;;;6236459;23;20027;-88